Time;durP1;ratioP1;P1;durP2;ratioP2;P2;SDS_P1;SDS_P2;PMS_P1;PMS_P2;Temp;Humidity;BMP_temperature;BMP_pressure;BME280_temperature;BME280_humidity;BME280_pressure;Samples;Min_cycle;Max_cycle;Signal;HPM_P1;HPM_P2
2023/03/07 00:00:24;;;;;;;50.58;27.05;;;;;;;11.51;54.51;99631.56;4946246;29;20527;-79
2023/03/07 00:03:20;;;;;;;49.38;24.17;;;;;;;11.43;54.31;99634.44;4969890;28;20050;-79
2023/03/07 00:06:12;;;;;;;41.33;19.87;;;;;;;11.44;54.42;99636.03;4959305;28;20042;-79
2023/03/07 00:09:07;;;;;;;46.35;24.52;;;;;;;11.44;53.85;99636.03;4954140;29;20062;-79
2023/03/07 00:11:59;;;;;;;42.92;22.75;;;;;;;11.35;53.88;99628.03;4950393;28;20039;-79
2023/03/07 00:14:54;;;;;;;43.10;24.88;;;;;;;11.41;53.69;99637.53;4963129;28;20046;-79
2023/03/07 00:17:48;;;;;;;50.43;25.67;;;;;;;11.34;54.01;99633.78;4964152;28;20102;-79
2023/03/07 00:20:43;;;;;;;49.67;27.10;;;;;;;11.35;53.75;99632.66;4942569;28;20043;-79
2023/03/07 00:23:39;;;;;;;48.75;24.85;;;;;;;11.25;53.50;99638.59;4952389;28;20051;-79
2023/03/07 00:26:34;;;;;;;46.60;24.48;;;;;;;11.12;54.11;99630.47;4953102;28;20050;-79
2023/03/07 00:29:29;;;;;;;51.17;26.03;;;;;;;11.00;54.93;99632.44;4938515;29;20035;-79
2023/03/07 00:32:23;;;;;;;46.97;24.13;;;;;;;11.14;54.55;99630.94;4948677;29;20059;-79
2023/03/07 00:35:18;;;;;;;55.22;26.65;;;;;;;11.09;54.86;99631.16;4956932;28;20051;-79
2023/03/07 00:38:12;;;;;;;40.80;18.30;;;;;;;11.02;54.34;99635.63;4951240;29;20058;-79
2023/03/07 00:41:14;;;;;;;47.03;23.92;;;;;;;10.89;54.62;99637.56;4952370;28;20050;-79
2023/03/07 00:44:08;;;;;;;52.40;25.02;;;;;;;10.95;54.61;99633.47;4954646;29;20050;-79
2023/03/07 00:47:03;;;;;;;51.55;26.33;;;;;;;10.90;54.37;99630.22;4941125;29;20058;-79
2023/03/07 00:49:57;;;;;;;48.20;24.30;;;;;;;10.68;55.10;99626.03;4934845;28;20144;-79
2023/03/07 00:52:51;;;;;;;50.75;24.85;;;;;;;10.60;55.32;99621.53;4940232;29;20051;-79
2023/03/07 00:55:54;;;;;;;59.88;25.20;;;;;;;10.34;56.02;99615.66;4937492;29;20046;-79
2023/03/07 00:58:49;;;;;;;52.03;26.77;;;;;;;10.34;56.56;99613.75;4947621;29;20046;-79
2023/03/07 01:01:44;;;;;;;53.35;27.05;;;;;;;10.29;56.71;99614.78;4949051;28;20038;-79
2023/03/07 01:04:39;;;;;;;50.80;25.50;;;;;;;10.17;56.35;99609.31;4946121;28;20062;-80
2023/03/07 01:07:33;;;;;;;58.00;26.35;;;;;;;10.18;57.18;99605.47;4962943;28;20065;-79
2023/03/07 01:10:28;;;;;;;73.47;27.97;;;;;;;10.21;56.78;99610.22;4939132;29;20046;-79
2023/03/07 01:13:22;;;;;;;60.30;26.60;;;;;;;10.20;56.66;99610.59;4940929;29;20473;-79
2023/03/07 01:16:27;;;;;;;56.78;27.40;;;;;;;10.05;56.69;99605.78;4953832;29;20055;-79
2023/03/07 01:19:21;;;;;;;45.38;25.60;;;;;;;10.10;56.97;99598.22;4968677;28;20054;-79
2023/03/07 01:22:17;;;;;;;52.10;25.52;;;;;;;10.49;55.44;99601.38;4956584;29;20535;-79
2023/03/07 01:25:12;;;;;;;36.23;19.87;;;;;;;10.34;55.71;99602.09;4945163;28;20054;-79
2023/03/07 01:28:07;;;;;;;57.10;24.95;;;;;;;10.12;56.97;99598.66;4951577;29;20278;-79
2023/03/07 01:31:04;;;;;;;52.70;25.33;;;;;;;10.18;56.82;99596.53;4969109;28;20086;-79
2023/03/07 01:34:01;;;;;;;53.20;25.77;;;;;;;10.30;56.39;99591.09;4954757;28;20066;-79
2023/03/07 01:36:56;;;;;;;54.80;26.20;;;;;;;10.10;56.37;99590.06;4948427;29;20054;-79
2023/03/07 01:39:54;;;;;;;47.72;27.48;;;;;;;9.93;55.88;99587.56;4967868;29;20412;-79
2023/03/07 01:42:47;;;;;;;51.60;24.15;;;;;;;9.79;55.16;99590.59;4957365;29;20043;-79
2023/03/07 01:45:42;;;;;;;57.77;24.70;;;;;;;9.51;57.19;99592.34;4964500;29;20046;-79
2023/03/07 01:48:34;;;;;;;53.13;25.13;;;;;;;9.55;57.58;99595.19;4951177;29;20047;-79
2023/03/07 01:51:30;;;;;;;47.72;19.75;;;;;;;9.67;57.96;99596.00;4957650;28;20062;-79
2023/03/07 01:54:27;;;;;;;50.92;25.05;;;;;;;9.63;58.14;99589.66;4956792;28;20047;-79
2023/03/07 01:57:20;;;;;;;;;;;;;;;9.66;57.80;99590.91;4943277;28;20055;-79
2023/03/07 02:00:18;;;;;;;53.30;25.77;;;;;;;9.58;58.16;99597.22;4952005;29;19918;-79
2023/03/07 02:03:20;;;;;;;55.35;23.88;;;;;;;9.64;57.60;99595.88;4971798;28;20054;-79
2023/03/07 02:06:16;;;;;;;51.78;23.23;;;;;;;9.62;58.12;99600.84;4983557;28;20054;-79
2023/03/07 02:09:11;;;;;;;53.35;23.40;;;;;;;9.41;56.71;99582.69;4970826;29;20055;-79
2023/03/07 02:12:06;;;;;;;62.42;24.83;;;;;;;9.38;57.42;99585.31;4959229;28;20050;-79
2023/03/07 02:15:01;;;;;;;49.13;19.73;;;;;;;9.33;57.72;99585.50;4980429;28;20043;-79
2023/03/07 02:17:53;;;;;;;54.65;27.38;;;;;;;9.40;58.37;99578.41;4986799;28;20554;-79
2023/03/07 02:21:03;;;;;;;48.60;24.90;;;;;;;9.29;58.00;99579.19;4970068;28;20038;-79
2023/03/07 02:24:11;;;;;;;46.30;25.10;;;;;;;9.36;58.70;99573.97;4999365;28;20047;-79
2023/03/07 02:27:04;;;;;;;51.25;24.83;;;;;;;9.47;58.51;99571.63;4970601;29;20054;-79
2023/03/07 02:29:56;;;;;;;47.78;25.25;;;;;;;9.55;58.39;99571.53;4971199;29;20038;-79
2023/03/07 02:32:49;;;;;;;53.50;26.30;;;;;;;9.53;58.03;99573.81;4986766;28;20050;-79
2023/03/07 02:35:43;;;;;;;47.03;24.73;;;;;;;9.58;57.23;99570.09;4972725;28;20059;-79
2023/03/07 02:38:42;;;;;;;37.77;18.33;;;;;;;9.64;55.83;99569.53;4969220;28;20038;-79
2023/03/07 02:41:39;;;;;;;53.45;25.95;;;;;;;9.48;56.30;99573.22;4968059;28;20038;-79
2023/03/07 02:44:45;;;;;;;36.75;18.73;;;;;;;9.39;56.48;99568.69;4958761;28;20042;-79
2023/03/07 02:47:41;;;;;;;48.53;25.33;;;;;;;9.34;57.63;99565.41;4971582;28;20046;-79
2023/03/07 02:50:36;;;;;;;43.25;20.15;;;;;;;9.33;57.38;99563.81;4968481;29;20046;-79
2023/03/07 02:53:28;;;;;;;54.23;26.03;;;;;;;9.17;57.56;99558.22;4976988;28;20042;-79
2023/03/07 02:56:23;;;;;;;53.83;25.33;;;;;;;9.09;57.94;99569.16;4965083;28;20070;-79
2023/03/07 02:59:18;;;;;;;54.55;24.25;;;;;;;8.91;58.28;99563.09;4965573;28;20042;-79
2023/03/07 03:02:12;;;;;;;40.60;21.37;;;;;;;8.90;58.11;99565.00;4968645;28;20050;-80
2023/03/07 03:05:07;;;;;;;41.80;19.23;;;;;;;8.91;58.94;99560.38;4980014;28;20050;-79
2023/03/07 03:08:02;;;;;;;50.73;24.40;;;;;;;8.92;59.26;99565.47;4972020;28;20046;-79
2023/03/07 03:10:59;;;;;;;52.50;23.90;;;;;;;8.91;58.35;99566.59;4969757;28;20046;-79
2023/03/07 03:13:54;;;;;;;57.55;24.73;;;;;;;8.85;58.91;99567.91;4969989;28;20798;-79
2023/03/07 03:16:47;;;;;;;51.53;24.33;;;;;;;8.92;59.14;99573.59;4967522;28;20046;-79
2023/03/07 03:19:41;;;;;;;38.97;22.42;;;;;;;8.91;58.73;99568.50;4978465;28;20038;-80
2023/03/07 03:22:36;;;;;;;49.97;24.33;;;;;;;8.91;58.94;99572.00;4972961;28;20050;-79
2023/03/07 03:25:31;;;;;;;54.00;25.37;;;;;;;8.93;58.92;99579.81;4967888;28;20055;-79
2023/03/07 03:28:26;;;;;;;33.80;19.47;;;;;;;8.85;59.49;99584.16;4958421;29;20281;-79
2023/03/07 03:31:20;;;;;;;45.55;23.77;;;;;;;9.02;59.14;99577.81;4977393;28;20529;-79
2023/03/07 03:34:15;;;;;;;35.78;18.58;;;;;;;9.13;58.86;99586.34;4964656;29;20046;-79
2023/03/07 03:37:09;;;;;;;35.78;18.25;;;;;;;9.04;59.37;99580.97;4957107;28;20054;-79
2023/03/07 03:40:05;;;;;;;47.50;24.33;;;;;;;8.96;58.26;99582.66;4969847;28;20046;-79
2023/03/07 03:42:59;;;;;;;39.13;18.00;;;;;;;8.83;58.67;99583.72;4966440;28;20043;-79
2023/03/07 03:46:01;;;;;;;38.92;19.45;;;;;;;8.89;58.83;99589.72;4990296;28;20551;-78
2023/03/07 03:48:58;;;;;;;54.72;25.88;;;;;;;8.92;58.92;99584.44;4954563;29;20042;-78
2023/03/07 03:51:53;;;;;;;48.38;26.27;;;;;;;8.95;59.20;99588.41;4960433;28;20527;-78
2023/03/07 03:54:47;;;;;;;43.22;24.10;;;;;;;8.84;59.01;99587.19;4957755;28;20046;-79
2023/03/07 03:57:40;;;;;;;;;;;;;;;8.73;58.90;99588.75;4949162;29;20054;-77
2023/03/07 04:00:35;;;;;;;50.00;24.75;;;;;;;8.78;58.56;99588.56;4958927;28;19926;-78
2023/03/07 04:03:30;;;;;;;50.22;25.00;;;;;;;8.77;59.08;99587.75;4943175;29;20062;-79
2023/03/07 04:06:25;;;;;;;55.25;28.88;;;;;;;8.86;59.21;99596.59;4958785;28;20046;-78
2023/03/07 04:09:17;;;;;;;50.75;26.90;;;;;;;8.79;60.02;99593.63;4959636;28;20145;-78
2023/03/07 04:12:12;;;;;;;53.50;25.75;;;;;;;8.74;59.05;99593.03;4948712;28;20046;-78
2023/03/07 04:15:06;;;;;;;32.03;19.92;;;;;;;8.82;59.23;99594.88;4979903;28;20054;-79
2023/03/07 04:18:01;;;;;;;56.47;28.88;;;;;;;8.81;59.23;99594.09;4956562;28;20045;-79
2023/03/07 04:20:54;;;;;;;52.13;26.70;;;;;;;8.69;59.98;99591.31;4957686;28;20046;-79
2023/03/07 04:23:49;;;;;;;45.90;26.85;;;;;;;8.68;60.08;99597.06;4956998;28;20046;-79
2023/03/07 04:26:43;;;;;;;40.60;22.03;;;;;;;8.66;59.76;99596.59;4943260;29;20046;-79
2023/03/07 04:29:38;;;;;;;50.65;27.27;;;;;;;8.58;60.14;99596.31;4972525;28;20331;-78
2023/03/07 04:32:36;;;;;;;59.05;29.67;;;;;;;8.59;61.21;99600.63;4979799;28;20050;-79
2023/03/07 04:35:31;;;;;;;60.50;29.13;;;;;;;8.56;60.82;99597.78;4952199;28;20050;-78
2023/03/07 04:38:26;;;;;;;48.83;25.03;;;;;;;8.48;61.24;99599.41;4957165;28;20070;-78
2023/03/07 04:41:21;;;;;;;55.40;28.97;;;;;;;8.54;60.57;99586.47;4954437;28;20046;-78
2023/03/07 04:44:15;;;;;;;70.25;32.38;;;;;;;8.53;61.62;99572.13;4953585;28;20047;-79
2023/03/07 04:47:10;;;;;;;59.85;28.33;;;;;;;8.50;61.31;99582.84;4950495;29;20050;-79
2023/03/07 04:50:04;;;;;;;50.42;27.23;;;;;;;8.53;61.49;99593.81;4955851;28;20537;-79
2023/03/07 04:53:00;;;;;;;52.95;28.90;;;;;;;8.53;62.09;99580.25;4968600;28;20046;-79
2023/03/07 04:55:57;;;;;;;61.38;30.92;;;;;;;8.47;61.83;99578.88;4945528;29;20050;-78
2023/03/07 04:58:52;;;;;;;70.20;37.47;;;;;;;8.43;61.27;99577.94;4942390;29;20420;-78
2023/03/07 05:01:46;;;;;;;85.22;44.53;;;;;;;8.42;62.11;99581.00;4959366;28;20046;-78
2023/03/07 05:04:41;;;;;;;67.88;33.63;;;;;;;8.43;61.31;99577.94;4956068;29;20058;-79
2023/03/07 05:07:36;;;;;;;50.80;27.87;;;;;;;8.35;61.80;99576.09;4957858;28;20050;-78
2023/03/07 05:10:28;;;;;;;61.38;29.95;;;;;;;8.20;61.24;99583.94;4957827;28;20038;-78
2023/03/07 05:13:22;;;;;;;53.50;29.92;;;;;;;8.32;61.80;99593.00;4958896;28;20058;-78
2023/03/07 05:16:17;;;;;;;55.63;30.37;;;;;;;8.29;61.30;99598.22;4954841;29;20050;-78
2023/03/07 05:19:12;;;;;;;54.53;27.42;;;;;;;8.38;61.70;99594.38;4955881;28;20300;-78
2023/03/07 05:22:06;;;;;;;64.93;32.63;;;;;;;8.35;61.35;99595.03;4954897;28;20416;-78
2023/03/07 05:24:59;;;;;;;58.50;29.70;;;;;;;8.26;60.82;99586.16;4961036;28;20404;-79
2023/03/07 05:27:53;;;;;;;53.90;29.17;;;;;;;8.10;59.41;99582.41;4958183;28;20042;-78
2023/03/07 05:30:49;;;;;;;63.17;30.57;;;;;;;8.14;60.34;99583.34;4953168;28;20043;-78
2023/03/07 05:33:41;;;;;;;;;;;;;;;7.88;60.97;99579.94;4959024;28;20046;-78
2023/03/07 05:36:34;;;;;;;56.72;29.00;;;;;;;8.01;62.03;99585.16;4968629;28;19918;-79
2023/03/07 05:39:26;;;;;;;65.90;29.48;;;;;;;8.03;60.99;99582.09;4956648;29;20047;-78
2023/03/07 05:42:21;;;;;;;43.83;22.50;;;;;;;8.20;61.28;99587.44;4956434;28;20046;-78
2023/03/07 05:45:15;;;;;;;59.28;29.60;;;;;;;8.08;61.23;99576.50;4959367;28;20061;-79
2023/03/07 05:48:10;;;;;;;49.15;23.60;;;;;;;8.07;61.62;99585.78;4945637;28;20070;-80
2023/03/07 05:51:05;;;;;;;56.90;30.17;;;;;;;7.99;60.96;99589.31;4969937;28;20054;-80
2023/03/07 05:53:59;;;;;;;64.37;35.73;;;;;;;7.90;60.92;99599.38;4959280;28;20633;-80
2023/03/07 05:56:54;;;;;;;64.88;32.33;;;;;;;8.13;60.84;99595.28;4967572;28;20285;-79
2023/03/07 05:59:49;;;;;;;41.10;23.20;;;;;;;7.85;61.75;99597.66;4953101;28;20050;-78
2023/03/07 06:02:41;;;;;;;72.68;34.90;;;;;;;7.95;61.90;99593.78;4967623;28;20431;-78
2023/03/07 06:05:35;;;;;;;63.80;33.13;;;;;;;8.18;61.12;99602.44;4964612;28;20531;-79
2023/03/07 06:08:30;;;;;;;77.20;31.83;;;;;;;8.25;61.31;99608.13;4944360;29;20043;-79
2023/03/07 06:11:24;;;;;;;64.78;34.00;;;;;;;8.26;60.91;99609.72;4961250;28;20237;-79
2023/03/07 06:14:19;;;;;;;52.15;28.58;;;;;;;8.14;60.96;99602.28;4960803;28;20054;-79
2023/03/07 06:17:13;;;;;;;59.45;29.13;;;;;;;7.98;61.54;99610.16;4964124;28;20054;-79
2023/03/07 06:20:08;;;;;;;57.90;33.42;;;;;;;8.02;61.43;99610.31;4978064;28;20050;-79
2023/03/07 06:23:04;;;;;;;62.43;28.33;;;;;;;8.13;60.96;99614.22;4963208;29;20066;-80
2023/03/07 06:25:59;;;;;;;87.53;39.95;;;;;;;8.09;62.16;99613.31;4953098;28;20811;-82
2023/03/07 06:28:54;;;;;;;63.28;31.70;;;;;;;8.23;61.92;99610.38;4949021;29;20043;-79
2023/03/07 06:31:49;;;;;;;84.20;41.38;;;;;;;8.42;61.21;99619.72;4967364;28;20047;-80
2023/03/07 06:34:44;;;;;;;77.87;37.37;;;;;;;8.38;61.81;99616.03;4965874;28;20050;-80
2023/03/07 06:37:36;;;;;;;79.63;39.60;;;;;;;8.39;61.50;99614.94;4963019;28;20074;-81
2023/03/07 06:40:31;;;;;;;77.57;37.15;;;;;;;8.40;61.67;99616.53;4943538;29;20050;-81
2023/03/07 06:43:23;;;;;;;71.60;35.40;;;;;;;8.53;61.43;99629.03;4945758;29;20051;-81
2023/03/07 06:46:15;;;;;;;57.03;32.83;;;;;;;8.33;61.84;99627.06;4957878;28;20289;-79
2023/03/07 06:49:07;;;;;;;69.13;35.25;;;;;;;8.49;61.62;99622.69;4967802;28;20050;-80
2023/03/07 06:51:59;;;;;;;68.88;34.20;;;;;;;8.46;62.15;99619.84;4965809;28;20046;-79
2023/03/07 06:54:54;;;;;;;85.53;37.55;;;;;;;8.37;62.73;99630.72;4964494;28;20042;-83
2023/03/07 06:57:49;;;;;;;71.63;36.63;;;;;;;8.28;63.33;99640.75;4962499;28;20050;-80
2023/03/07 07:00:44;;;;;;;70.70;35.17;;;;;;;8.56;62.53;99643.84;4964074;28;20051;-79
2023/03/07 07:03:39;;;;;;;69.30;36.30;;;;;;;8.69;62.49;99644.72;4949886;29;20516;-81
2023/03/07 07:06:34;;;;;;;64.10;34.50;;;;;;;8.72;63.00;99652.19;4948058;29;20050;-80
2023/03/07 07:09:28;;;;;;;62.23;33.80;;;;;;;8.82;63.17;99644.47;4966481;28;20560;-80
2023/03/07 07:12:23;;;;;;;73.50;35.72;;;;;;;8.99;62.71;99647.03;4964867;28;20054;-79
2023/03/07 07:15:14;;;;;;;79.93;32.63;;;;;;;9.15;62.68;99647.25;4951684;28;20050;-80
2023/03/07 07:18:09;;;;;;;66.63;33.80;;;;;;;9.23;62.92;99651.03;4944344;29;20051;-80
2023/03/07 07:21:03;;;;;;;66.88;33.67;;;;;;;9.66;62.59;99640.56;4955167;28;20054;-81
2023/03/07 07:23:59;;;;;;;48.27;27.00;;;;;;;9.65;62.71;99647.09;4949897;28;20042;-81
2023/03/07 07:26:54;;;;;;;66.00;35.50;;;;;;;9.60;63.59;99647.31;4966994;28;20277;-81
2023/03/07 07:29:49;;;;;;;68.97;35.40;;;;;;;9.70;63.37;99655.03;4943028;29;20039;-81
2023/03/07 07:32:43;;;;;;;58.15;32.45;;;;;;;9.74;63.21;99636.19;4958444;28;20046;-80
2023/03/07 07:35:38;;;;;;;68.57;33.20;;;;;;;9.73;63.61;99646.25;4953699;28;20050;-81
2023/03/07 07:38:32;;;;;;;62.92;34.97;;;;;;;9.84;63.70;99657.47;4948334;29;20412;-80
2023/03/07 07:41:24;;;;;;;66.87;35.43;;;;;;;9.77;64.23;99659.94;4947805;29;20042;-80
2023/03/07 07:44:20;;;;;;;67.03;36.38;;;;;;;9.97;63.80;99660.97;4960016;28;20309;-80
2023/03/07 07:47:23;;;;;;;66.15;36.03;;;;;;;10.04;63.45;99662.03;4944221;29;20042;-80
2023/03/07 07:50:19;;;;;;;70.30;35.17;;;;;;;10.03;63.79;99655.00;4958286;28;20050;-80
2023/03/07 07:53:14;;;;;;;66.82;35.90;;;;;;;10.10;63.33;99655.25;4949246;28;20057;-79
2023/03/07 07:56:03;;;;;;;51.47;29.30;;;;;;;10.14;63.03;99671.66;4956782;28;20055;-79
2023/03/07 07:58:56;;;;;;;65.15;35.05;;;;;;;10.19;62.98;99660.59;4951959;29;20046;-79
2023/03/07 08:01:50;;;;;;;62.10;34.78;;;;;;;10.44;63.53;99664.13;4955837;28;20058;-78
2023/03/07 08:04:45;;;;;;;46.70;28.15;;;;;;;10.54;62.71;99658.22;4955968;28;20531;-79
2023/03/07 08:07:37;;;;;;;69.88;37.00;;;;;;;10.62;62.60;99660.81;4958766;28;20083;-79
2023/03/07 08:10:32;;;;;;;67.25;35.70;;;;;;;10.64;62.04;99655.06;4960258;28;20232;-80
2023/03/07 08:13:26;;;;;;;69.18;38.20;;;;;;;10.65;62.17;99656.66;4958192;28;20049;-79
2023/03/07 08:16:23;;;;;;;47.30;27.52;;;;;;;10.74;62.10;99662.75;4976695;28;20042;-80
2023/03/07 08:19:17;;;;;;;62.83;36.30;;;;;;;10.85;61.64;99665.81;4968156;28;20049;-79
2023/03/07 08:22:12;;;;;;;71.22;37.42;;;;;;;10.77;61.89;99670.22;4963621;28;20424;-79
2023/03/07 08:25:05;;;;;;;69.55;37.90;;;;;;;10.82;61.63;99667.25;4961690;28;20057;-80
2023/03/07 08:28:00;;;;;;;71.63;35.45;;;;;;;10.85;61.64;99674.75;4958598;28;20046;-80
2023/03/07 08:30:55;;;;;;;63.97;33.87;;;;;;;10.90;60.99;99679.97;4960512;28;20046;-79
2023/03/07 08:33:50;;;;;;;45.07;26.10;;;;;;;11.07;61.05;99678.91;4953586;28;20830;-79
2023/03/07 08:36:44;;;;;;;49.93;28.23;;;;;;;11.22;60.70;99678.19;4968806;28;20286;-79
2023/03/07 08:39:39;;;;;;;59.75;33.92;;;;;;;11.30;60.06;99679.97;4957927;28;20302;-79
2023/03/07 08:42:31;;;;;;;68.50;34.90;;;;;;;11.21;60.42;99686.69;4960253;28;20046;-79
2023/03/07 08:45:25;;;;;;;57.20;32.55;;;;;;;11.27;60.06;99686.13;4961987;28;20054;-79
2023/03/07 08:48:20;;;;;;;55.87;33.47;;;;;;;11.24;60.24;99683.28;4959402;28;20519;-79
2023/03/07 08:51:16;;;;;;;59.93;32.90;;;;;;;11.34;60.38;99688.22;4961562;28;20059;-80
2023/03/07 08:54:10;;;;;;;63.38;34.53;;;;;;;11.37;59.89;99684.84;4960850;28;20289;-78
2023/03/07 08:57:02;;;;;;;64.47;34.42;;;;;;;11.44;59.36;99671.41;4989264;28;20058;-78
2023/03/07 08:59:54;;;;;;;45.45;26.33;;;;;;;11.53;59.37;99680.22;4943271;29;20055;-78
2023/03/07 09:02:46;;;;;;;59.63;31.67;;;;;;;11.63;58.71;99677.00;4939689;29;20535;-78
2023/03/07 09:05:44;;;;;;;52.85;29.98;;;;;;;11.73;59.33;99679.28;4967797;28;20527;-78
2023/03/07 09:08:39;;;;;;;59.92;35.53;;;;;;;11.72;59.08;99680.38;4959635;28;20050;-78
2023/03/07 09:11:28;;;;;;;53.97;31.20;;;;;;;11.70;59.36;99671.75;4954906;28;20736;-77
2023/03/07 09:14:23;;;;;;;58.75;33.83;;;;;;;11.77;59.50;99671.19;4949526;28;20043;-78
2023/03/07 09:17:18;;;;;;;60.20;34.23;;;;;;;11.83;59.09;99675.25;4965742;28;20066;-79
2023/03/07 09:20:14;;;;;;;59.40;31.08;;;;;;;11.85;58.91;99671.03;4959401;28;20066;-80
2023/03/07 09:23:08;;;;;;;56.58;32.40;;;;;;;11.85;58.72;99668.31;4960447;28;20050;-80
2023/03/07 09:26:06;;;;;;;49.28;25.98;;;;;;;11.92;58.53;99668.50;4956250;28;20042;-79
2023/03/07 09:28:56;;;;;;;64.03;34.28;;;;;;;11.94;58.98;99676.31;4959227;28;20066;-79
2023/03/07 09:31:50;;;;;;;69.40;31.17;;;;;;;12.13;58.22;99681.88;4958737;28;20053;-79
2023/03/07 09:34:45;;;;;;;118.25;39.30;;;;;;;12.22;58.11;99677.06;4963766;28;20050;-80
2023/03/07 09:37:37;;;;;;;55.53;31.17;;;;;;;12.23;58.39;99677.84;4970061;28;20046;-79
2023/03/07 09:40:32;;;;;;;62.07;30.50;;;;;;;12.24;58.68;99673.97;4966014;28;20121;-78
2023/03/07 09:43:27;;;;;;;63.03;33.57;;;;;;;12.31;58.15;99683.09;4960988;28;20054;-79
2023/03/07 09:46:55;;;;;;;43.80;25.25;;;;;;;12.47;58.60;99679.59;4940179;29;20067;-79
2023/03/07 09:49:54;;;;;;;61.38;30.75;;;;;;;12.60;57.96;99673.66;4942808;29;20047;-79
2023/03/07 09:52:50;;;;;;;51.95;30.95;;;;;;;12.44;58.14;99664.75;4952473;29;20413;-79
2023/03/07 09:55:40;;;;;;;;;;;;;;;12.59;58.09;99669.38;4951490;28;20050;-80
2023/03/07 09:58:34;;;;;;;58.67;29.25;;;;;;;12.49;58.26;99669.13;4969929;28;19914;-81
2023/03/07 10:01:31;;;;;;;63.42;30.80;;;;;;;12.60;58.69;99668.22;4969240;28;20050;-79
2023/03/07 10:04:31;;;;;;;57.45;31.92;;;;;;;12.73;58.32;99658.81;4970239;28;20054;-79
2023/03/07 10:07:26;;;;;;;57.75;28.27;;;;;;;12.76;58.04;99657.28;4939019;29;20058;-78
2023/03/07 10:10:23;;;;;;;48.30;28.70;;;;;;;12.88;57.14;99648.19;4943495;29;20147;-79
2023/03/07 10:13:34;;;;;;;46.22;27.63;;;;;;;12.88;56.66;99648.19;4940598;29;20050;-78
2023/03/07 10:17:05;;;;;;;43.45;25.27;;;;;;;12.85;56.04;99644.22;4951059;28;20042;-78
2023/03/07 10:20:06;;;;;;;57.28;28.25;;;;;;;13.16;55.79;99643.38;4936969;28;20046;-79
2023/03/07 10:23:27;;;;;;;52.40;27.75;;;;;;;13.17;55.38;99650.41;4954514;28;20051;-79
2023/03/07 10:26:40;;;;;;;53.97;26.58;;;;;;;13.21;54.89;99651.28;4949270;29;20046;-78
2023/03/07 10:29:39;;;;;;;41.00;23.60;;;;;;;13.15;55.06;99636.34;4950690;29;20111;-78
2023/03/07 10:32:57;;;;;;;46.05;24.83;;;;;;;13.13;55.31;99641.38;4962718;28;20054;-77
2023/03/07 10:36:02;;;;;;;43.15;24.55;;;;;;;13.37;53.90;99632.88;4971281;29;20054;-79
2023/03/07 10:39:00;;;;;;;43.05;24.67;;;;;;;13.42;54.21;99635.31;4989194;28;20046;-78
2023/03/07 10:41:52;;;;;;;43.33;22.40;;;;;;;13.48;54.27;99631.16;4966162;28;20050;-77
2023/03/07 10:44:47;;;;;;;37.10;21.60;;;;;;;13.41;53.39;99625.53;4961019;28;20055;-79
2023/03/07 10:47:37;;;;;;;27.45;16.70;;;;;;;13.37;53.85;99619.22;4968357;28;20409;-79
2023/03/07 10:50:32;;;;;;;35.42;18.95;;;;;;;13.46;52.86;99619.78;4970988;28;20042;-79
2023/03/07 10:53:36;;;;;;;38.60;19.73;;;;;;;13.48;52.66;99622.97;4967601;28;20055;-79
2023/03/07 10:56:30;;;;;;;39.55;21.35;;;;;;;13.64;52.52;99622.88;4965944;28;20050;-78
2023/03/07 10:59:25;;;;;;;33.13;17.63;;;;;;;13.75;49.90;99620.34;4968613;28;20058;-78
2023/03/07 11:02:39;;;;;;;;;;;;;;;13.87;50.05;99614.69;4966061;28;20128;-79
2023/03/07 11:05:32;;;;;;;29.42;18.48;;;;;;;13.86;50.97;99613.91;4963816;28;19915;-78
2023/03/07 11:08:30;;;;;;;42.50;19.02;;;;;;;13.91;51.45;99612.81;4976375;28;20066;-76
2023/03/07 11:11:32;;;;;;;31.63;16.60;;;;;;;14.03;50.66;99609.91;4942661;29;20409;-79
2023/03/07 11:14:23;;;;;;;27.25;15.00;;;;;;;14.07;49.64;99599.81;4953207;29;20051;-79
2023/03/07 11:17:43;;;;;;;26.52;13.70;;;;;;;14.17;48.53;99596.44;4953529;29;20511;-79
2023/03/07 11:20:52;;;;;;;25.48;13.40;;;;;;;14.31;47.42;99577.56;4928583;29;20051;-77
2023/03/07 11:24:02;;;;;;;24.45;11.73;;;;;;;14.35;46.94;99570.19;4940783;29;20050;-77
2023/03/07 11:26:53;;;;;;;19.90;11.57;;;;;;;14.53;46.10;99565.78;4928365;29;20039;-80
2023/03/07 11:29:43;;;;;;;22.60;12.70;;;;;;;14.53;47.09;99567.72;4955833;29;20046;-78
2023/03/07 11:32:39;;;;;;;22.73;12.18;;;;;;;14.64;46.41;99565.94;4943214;29;20046;-79
2023/03/07 11:35:59;;;;;;;21.95;10.68;;;;;;;14.59;46.72;99570.94;4940738;29;20046;-79
2023/03/07 11:39:33;;;;;;;26.20;13.02;;;;;;;14.52;46.26;99569.69;4944778;29;20050;-78
2023/03/07 11:42:31;;;;;;;18.67;10.50;;;;;;;14.47;46.83;99556.34;4946583;29;20059;-80
2023/03/07 11:45:33;;;;;;;24.77;13.20;;;;;;;14.50;46.04;99552.84;4951996;29;20054;-79
2023/03/07 11:48:28;;;;;;;28.13;12.90;;;;;;;14.42;46.14;99553.91;4946120;29;20051;-80
2023/03/07 11:51:41;;;;;;;23.08;12.25;;;;;;;14.50;46.56;99554.78;4935816;29;20051;-79
2023/03/07 11:54:45;;;;;;;27.40;12.52;;;;;;;14.51;46.13;99548.19;4952410;29;20054;-79
2023/03/07 11:57:54;;;;;;;27.10;10.82;;;;;;;14.47;45.67;99550.88;4941684;29;20042;-78
2023/03/07 12:01:04;;;;;;;24.55;13.55;;;;;;;14.48;45.37;99538.75;4950159;28;20051;-81
2023/03/07 12:04:23;;;;;;;30.00;13.10;;;;;;;14.52;45.56;99533.34;4943621;29;20128;-79
2023/03/07 12:07:57;;;;;;;19.73;10.88;;;;;;;14.64;45.42;99535.03;4958876;29;20050;-80
2023/03/07 12:11:10;;;;;;;24.92;12.15;;;;;;;14.64;44.83;99518.63;4936453;29;20043;-78
2023/03/07 12:14:26;;;;;;;30.00;10.52;;;;;;;14.70;45.14;99517.16;4919135;29;20066;-78
2023/03/07 12:17:53;;;;;;;17.95;10.45;;;;;;;14.68;44.59;99522.22;4915749;29;20050;-78
2023/03/07 12:20:44;;;;;;;19.30;7.30;;;;;;;14.77;43.10;99520.78;4957081;28;20058;-78
2023/03/07 12:23:41;;;;;;;19.85;8.15;;;;;;;14.93;43.21;99506.88;4964985;28;20046;-78
2023/03/07 12:26:56;;;;;;;20.98;8.88;;;;;;;14.97;44.04;99510.44;4971585;28;20062;-78
2023/03/07 12:30:02;;;;;;;20.88;8.95;;;;;;;15.10;43.64;99502.75;4962530;28;20054;-78
2023/03/07 12:32:58;;;;;;;20.80;9.38;;;;;;;15.20;43.29;99502.88;4965626;28;20046;-78
2023/03/07 12:35:55;;;;;;;19.25;9.18;;;;;;;15.35;42.81;99501.06;4946801;28;20051;-78
2023/03/07 12:38:53;;;;;;;21.45;8.38;;;;;;;15.50;41.71;99500.03;4941605;29;20042;-78
2023/03/07 12:42:21;;;;;;;24.13;9.10;;;;;;;15.62;40.84;99501.72;4956805;28;20409;-78
2023/03/07 12:45:16;;;;;;;18.45;7.43;;;;;;;15.56;40.25;99497.75;4949109;28;20413;-78
2023/03/07 12:48:35;;;;;;;18.00;8.57;;;;;;;15.58;40.78;99501.72;4953320;28;20047;-78
2023/03/07 12:51:42;;;;;;;20.92;7.57;;;;;;;15.59;40.88;99502.50;4951584;28;20116;-77
2023/03/07 12:54:51;;;;;;;15.25;8.30;;;;;;;15.60;41.55;99495.84;4951911;29;20046;-77
2023/03/07 12:57:48;;;;;;;16.45;7.07;;;;;;;15.41;41.62;99503.09;4956368;28;20050;-77
2023/03/07 13:00:45;;;;;;;16.45;8.10;;;;;;;15.49;40.65;99503.16;4981180;28;20050;-77
2023/03/07 13:04:02;;;;;;;20.70;8.10;;;;;;;15.47;41.54;99489.84;4954329;28;20045;-77
2023/03/07 13:07:02;;;;;;;20.05;8.60;;;;;;;15.41;41.17;99494.88;4945088;28;20050;-78
2023/03/07 13:09:58;;;;;;;22.40;8.77;;;;;;;15.43;42.01;99496.44;4954027;28;20046;-77
2023/03/07 13:12:51;;;;;;;17.20;8.27;;;;;;;15.42;41.72;99492.91;4952771;28;20076;-78
2023/03/07 13:16:02;;;;;;;16.42;8.35;;;;;;;15.34;41.90;99483.81;4962181;28;20050;-78
2023/03/07 13:19:12;;;;;;;22.50;8.80;;;;;;;15.31;42.23;99492.03;4961704;28;20047;-78
2023/03/07 13:22:23;;;;;;;14.18;7.45;;;;;;;15.22;42.07;99489.59;4951133;28;20046;-78
2023/03/07 13:25:28;;;;;;;24.95;10.60;;;;;;;15.25;42.20;99483.34;4951643;28;20046;-78
2023/03/07 13:28:40;;;;;;;50.30;13.95;;;;;;;15.25;42.23;99488.84;4940792;29;20059;-79
2023/03/07 13:31:38;;;;;;;33.65;10.77;;;;;;;15.35;42.24;99487.34;4955639;28;20050;-78
2023/03/07 13:34:50;;;;;;;25.90;8.57;;;;;;;15.38;41.98;99484.66;4972985;28;20046;-80
2023/03/07 13:37:51;;;;;;;18.73;6.32;;;;;;;15.54;41.15;99483.66;4960923;28;20508;-82
2023/03/07 13:40:58;;;;;;;32.90;9.98;;;;;;;15.71;41.14;99483.81;4960007;28;20428;-83